Terminal Aerodrome Forecast
Issued by NWS

Home | Current Version | Previous Version | Text Only | Print | Product List | Glossary On
Versions: 1 2 3 4 5 6 7 8 9 10 11 12 13
000
FTUS46 KMTR 272333
TAFOAK
TAF
KOAK 272333Z 2800/2906 28010KT P6SM SCT200
     FM280400 28010KT P6SM SCT200
     FM280900 30004KT P6SM SCT200
     FM282100 29012KT P6SM SCT200
     FM290300 27011KT P6SM SCT200=

USA.gov is the U.S. government's official web portal to all federal, state and local government web resources and services.